createdAt,value
2023-04-07T00:04:43.727Z,27.30
2023-04-07T00:14:45.594Z,38.47
2023-04-07T00:24:47.507Z,41.50
2023-04-07T00:34:49.378Z,32.60
2023-04-07T00:44:51.273Z,32.35
2023-04-07T00:54:56.500Z,35.92
2023-04-07T01:05:27.604Z,29.55
2023-04-07T01:15:31.700Z,34.13
2023-04-07T01:25:37.891Z,24.95
2023-04-07T01:35:41.552Z,32.75
2023-04-07T01:45:44.215Z,32.22
2023-04-07T01:55:46.174Z,27.88
2023-04-07T02:05:50.014Z,27.70
2023-04-07T02:15:54.239Z,33.60
2023-04-07T02:25:57.932Z,29.13
2023-04-07T02:35:59.815Z,27.30
2023-04-07T02:46:03.420Z,39.15
2023-04-07T02:56:05.385Z,34.38
2023-04-07T03:06:07.368Z,25.50
2023-04-07T03:16:13.934Z,26.98
2023-04-07T03:26:28.778Z,27.42
2023-04-07T03:36:32.061Z,28.73
2023-04-07T03:46:38.503Z,31.60
2023-04-07T03:56:41.376Z,35.05
2023-04-07T04:06:43.682Z,31.60
2023-04-07T04:17:09.096Z,28.83
2023-04-07T04:27:16.871Z,27.92
2023-04-07T04:37:22.522Z,40.35
2023-04-07T04:47:25.104Z,38.53
2023-04-07T04:57:27.151Z,33.95
2023-04-07T05:07:29.247Z,32.22
2023-04-07T05:17:32.054Z,39.33
2023-04-07T05:27:36.201Z,34.92
2023-04-07T05:37:45.346Z,35.80
2023-04-07T05:47:49.545Z,31.45
2023-04-07T05:57:57.329Z,27.50
2023-04-07T06:08:03.511Z,23.83
2023-04-07T06:18:05.443Z,23.38
2023-04-07T06:28:08.091Z,30.40
2023-04-07T06:38:10.076Z,32.55
2023-04-07T06:48:11.919Z,33.20
2023-04-07T06:58:13.888Z,38.35
2023-04-07T07:08:15.819Z,32.00
2023-04-07T07:18:18.077Z,30.20
2023-04-07T07:28:21.267Z,17.67
2023-04-07T07:38:29.075Z,19.00
2023-04-07T07:48:31.045Z,16.90
2023-04-07T07:58:32.837Z,10.57
2023-04-07T08:08:34.777Z,10.60
2023-04-07T08:18:36.598Z,10.52
2023-04-07T08:28:38.892Z,10.82
2023-04-07T08:38:40.933Z,10.93
2023-04-07T08:48:44.648Z,14.18
2023-04-07T08:58:49.372Z,16.77
2023-04-07T09:08:51.300Z,8.80
2023-04-07T09:18:53.640Z,7.68
2023-04-07T09:28:59.934Z,9.48
2023-04-07T09:39:08.449Z,8.07
2023-04-07T09:49:10.421Z,10.95
2023-04-07T09:59:13.922Z,15.65
2023-04-07T10:09:16.895Z,15.32
2023-04-07T10:19:19.851Z,18.23
2023-04-07T10:29:23.830Z,26.80
2023-04-07T10:39:25.619Z,21.85
2023-04-07T10:49:27.436Z,28.92
2023-04-07T10:59:33.871Z,23.42
2023-04-07T11:09:35.849Z,31.42
2023-04-07T11:19:54.129Z,28.00
2023-04-07T11:29:57.295Z,29.67
2023-04-07T11:39:59.478Z,36.13
2023-04-07T11:50:01.387Z,28.27
2023-04-07T12:00:11.150Z,32.47
2023-04-07T12:10:20.501Z,26.00
2023-04-07T12:20:22.454Z,23.03
2023-04-07T12:30:24.340Z,34.75
2023-04-07T12:40:26.321Z,27.02
2023-04-07T12:50:28.302Z,20.52
2023-04-07T13:00:30.231Z,19.95
2023-04-07T13:10:33.387Z,19.65
2023-04-07T13:20:35.732Z,19.48
2023-04-07T13:30:37.751Z,17.25
2023-04-07T13:40:45.114Z,13.40
2023-04-07T13:50:46.955Z,24.58
2023-04-07T14:00:48.930Z,21.17
2023-04-07T14:10:50.752Z,18.70
2023-04-07T14:20:52.618Z,19.63
2023-04-07T14:30:55.067Z,18.20
2023-04-07T14:41:09.106Z,19.75
2023-04-07T14:51:13.346Z,25.67
2023-04-07T15:01:15.374Z,28.42
2023-04-07T15:11:17.229Z,25.13
2023-04-07T15:21:19.713Z,21.65
2023-04-07T15:31:21.665Z,18.77
2023-04-07T15:41:23.555Z,27.80
2023-04-07T15:51:25.521Z,28.60
2023-04-07T16:01:28.089Z,20.40
2023-04-07T16:11:30.051Z,18.92
2023-04-07T16:21:31.885Z,20.25
2023-04-07T16:31:33.803Z,22.77
2023-04-07T16:41:35.578Z,21.40
2023-04-07T16:51:37.439Z,17.45
2023-04-07T17:01:41.431Z,25.27
2023-04-07T17:11:44.158Z,26.70
2023-04-07T17:21:46.760Z,32.17
2023-04-07T17:31:49.704Z,36.03
2023-04-07T17:41:51.871Z,30.00
2023-04-07T17:51:55.164Z,27.35
2023-04-07T18:01:57.064Z,22.27
2023-04-07T18:11:59.259Z,22.98
2023-04-07T18:22:01.237Z,23.15
2023-04-07T18:32:03.035Z,37.13
2023-04-07T18:42:05.733Z,26.10
2023-04-07T18:52:07.643Z,24.13
2023-04-07T19:02:09.473Z,28.08
2023-04-07T19:12:11.335Z,28.23
2023-04-07T19:22:13.174Z,35.65
2023-04-07T19:32:15.069Z,28.95
2023-04-07T19:42:17.177Z,27.90
2023-04-07T19:52:19.277Z,29.08
2023-04-07T20:02:21.358Z,23.25
2023-04-07T20:12:23.866Z,25.60
2023-04-07T20:22:25.698Z,25.17
2023-04-07T20:32:27.748Z,19.85
2023-04-07T20:42:29.632Z,21.52
2023-04-07T20:52:31.853Z,23.25
2023-04-07T21:02:33.896Z,21.13
2023-04-07T21:12:36.213Z,21.95
2023-04-07T21:22:38.601Z,27.80
2023-04-07T21:32:40.591Z,21.90
2023-04-07T21:42:42.468Z,20.33
2023-04-07T21:52:44.339Z,25.35
2023-04-07T22:02:46.530Z,30.10
2023-04-07T22:12:48.625Z,18.10
2023-04-07T22:22:50.517Z,26.55
2023-04-07T22:32:52.475Z,24.23
2023-04-07T22:42:54.383Z,21.42
2023-04-07T22:52:56.435Z,26.33
2023-04-07T23:02:58.382Z,20.05
2023-04-07T23:13:00.285Z,21.67
2023-04-07T23:23:02.124Z,16.52
2023-04-07T23:33:03.990Z,28.70
2023-04-07T23:43:05.921Z,30.55
2023-04-07T23:53:07.788Z,27.67
